sensor_id;sensor_type;location;lat;lon;timestamp;P1;durP1;ratioP1;P2;durP2;ratioP2
4430;SDS011;2228;48.140;11.488;2022-08-19T00:00:34;10.32;;;8.60;;
4430;SDS011;2228;48.140;11.488;2022-08-19T00:03:02;8.32;;;7.43;;
4430;SDS011;2228;48.140;11.488;2022-08-19T00:05:30;11.43;;;8.40;;
4430;SDS011;2228;48.140;11.488;2022-08-19T00:07:57;9.30;;;8.25;;
4430;SDS011;2228;48.140;11.488;2022-08-19T00:10:24;10.15;;;7.78;;
4430;SDS011;2228;48.140;11.488;2022-08-19T00:12:51;13.45;;;9.18;;
4430;SDS011;2228;48.140;11.488;2022-08-19T00:15:19;11.60;;;8.60;;
4430;SDS011;2228;48.140;11.488;2022-08-19T00:17:47;13.20;;;9.25;;
4430;SDS011;2228;48.140;11.488;2022-08-19T00:20:16;9.40;;;8.00;;
4430;SDS011;2228;48.140;11.488;2022-08-19T00:22:46;10.50;;;7.97;;
4430;SDS011;2228;48.140;11.488;2022-08-19T00:25:14;12.50;;;9.03;;
4430;SDS011;2228;48.140;11.488;2022-08-19T00:27:41;9.93;;;8.40;;
4430;SDS011;2228;48.140;11.488;2022-08-19T00:30:08;12.45;;;8.70;;
4430;SDS011;2228;48.140;11.488;2022-08-19T00:32:36;11.40;;;9.38;;
4430;SDS011;2228;48.140;11.488;2022-08-19T00:35:05;11.60;;;9.20;;
4430;SDS011;2228;48.140;11.488;2022-08-19T00:37:32;10.90;;;8.77;;
4430;SDS011;2228;48.140;11.488;2022-08-19T00:40:02;11.43;;;9.63;;
4430;SDS011;2228;48.140;11.488;2022-08-19T00:42:30;11.70;;;8.97;;
4430;SDS011;2228;48.140;11.488;2022-08-19T00:44:57;12.65;;;9.68;;
4430;SDS011;2228;48.140;11.488;2022-08-19T00:47:24;11.57;;;10.02;;
4430;SDS011;2228;48.140;11.488;2022-08-19T00:49:52;10.65;;;9.07;;
4430;SDS011;2228;48.140;11.488;2022-08-19T00:52:23;12.13;;;9.57;;
4430;SDS011;2228;48.140;11.488;2022-08-19T00:54:54;12.75;;;9.80;;
4430;SDS011;2228;48.140;11.488;2022-08-19T00:57:24;11.53;;;10.20;;
4430;SDS011;2228;48.140;11.488;2022-08-19T00:59:54;13.95;;;10.63;;
4430;SDS011;2228;48.140;11.488;2022-08-19T01:02:24;13.43;;;10.93;;
4430;SDS011;2228;48.140;11.488;2022-08-19T01:04:52;14.63;;;11.45;;
4430;SDS011;2228;48.140;11.488;2022-08-19T01:07:19;14.65;;;11.57;;
4430;SDS011;2228;48.140;11.488;2022-08-19T01:09:46;17.02;;;12.90;;
4430;SDS011;2228;48.140;11.488;2022-08-19T01:12:13;13.63;;;11.60;;
4430;SDS011;2228;48.140;11.488;2022-08-19T01:14:43;14.55;;;12.00;;
4430;SDS011;2228;48.140;11.488;2022-08-19T01:17:12;15.30;;;12.30;;
4430;SDS011;2228;48.140;11.488;2022-08-19T01:19:40;16.88;;;12.90;;
4430;SDS011;2228;48.140;11.488;2022-08-19T01:22:10;16.23;;;13.00;;
4430;SDS011;2228;48.140;11.488;2022-08-19T01:24:43;16.27;;;13.07;;
4430;SDS011;2228;48.140;11.488;2022-08-19T01:27:10;15.40;;;12.65;;
4430;SDS011;2228;48.140;11.488;2022-08-19T01:29:38;15.35;;;12.70;;
4430;SDS011;2228;48.140;11.488;2022-08-19T01:32:07;18.65;;;13.30;;
4430;SDS011;2228;48.140;11.488;2022-08-19T01:34:37;18.10;;;13.55;;
4430;SDS011;2228;48.140;11.488;2022-08-19T01:37:05;20.02;;;13.82;;
4430;SDS011;2228;48.140;11.488;2022-08-19T01:39:36;16.20;;;13.88;;
4430;SDS011;2228;48.140;11.488;2022-08-19T01:42:05;16.05;;;12.80;;
4430;SDS011;2228;48.140;11.488;2022-08-19T01:44:36;16.45;;;12.82;;
4430;SDS011;2228;48.140;11.488;2022-08-19T01:47:03;18.65;;;13.13;;
4430;SDS011;2228;48.140;11.488;2022-08-19T01:49:31;15.68;;;12.30;;
4430;SDS011;2228;48.140;11.488;2022-08-19T01:51:58;17.05;;;12.40;;
4430;SDS011;2228;48.140;11.488;2022-08-19T01:54:26;16.30;;;12.83;;
4430;SDS011;2228;48.140;11.488;2022-08-19T01:56:54;16.80;;;13.32;;
4430;SDS011;2228;48.140;11.488;2022-08-19T01:59:27;15.90;;;12.65;;
4430;SDS011;2228;48.140;11.488;2022-08-19T02:01:55;14.07;;;12.35;;
4430;SDS011;2228;48.140;11.488;2022-08-19T02:04:22;20.13;;;12.48;;
4430;SDS011;2228;48.140;11.488;2022-08-19T02:06:50;13.73;;;10.77;;
4430;SDS011;2228;48.140;11.488;2022-08-19T02:09:17;12.98;;;11.07;;
4430;SDS011;2228;48.140;11.488;2022-08-19T02:11:44;14.23;;;11.50;;
4430;SDS011;2228;48.140;11.488;2022-08-19T02:14:10;13.52;;;10.70;;
4430;SDS011;2228;48.140;11.488;2022-08-19T02:16:39;13.43;;;11.13;;
4430;SDS011;2228;48.140;11.488;2022-08-19T02:19:06;16.00;;;11.40;;
4430;SDS011;2228;48.140;11.488;2022-08-19T02:21:33;14.20;;;11.27;;
4430;SDS011;2228;48.140;11.488;2022-08-19T02:24:00;13.80;;;11.43;;
4430;SDS011;2228;48.140;11.488;2022-08-19T02:26:28;14.85;;;11.32;;
4430;SDS011;2228;48.140;11.488;2022-08-19T02:28:54;14.90;;;10.48;;
4430;SDS011;2228;48.140;11.488;2022-08-19T02:31:22;12.70;;;9.90;;
4430;SDS011;2228;48.140;11.488;2022-08-19T02:33:51;13.55;;;11.38;;
4430;SDS011;2228;48.140;11.488;2022-08-19T02:36:19;13.52;;;10.63;;
4430;SDS011;2228;48.140;11.488;2022-08-19T02:38:46;15.68;;;11.75;;
4430;SDS011;2228;48.140;11.488;2022-08-19T02:41:13;13.10;;;10.77;;
4430;SDS011;2228;48.140;11.488;2022-08-19T02:43:43;15.73;;;10.70;;
4430;SDS011;2228;48.140;11.488;2022-08-19T02:46:13;13.13;;;9.88;;
4430;SDS011;2228;48.140;11.488;2022-08-19T02:48:45;10.83;;;9.40;;
4430;SDS011;2228;48.140;11.488;2022-08-19T02:51:17;12.43;;;9.90;;
4430;SDS011;2228;48.140;11.488;2022-08-19T02:53:44;9.98;;;8.77;;
4430;SDS011;2228;48.140;11.488;2022-08-19T02:56:12;11.90;;;9.05;;
4430;SDS011;2228;48.140;11.488;2022-08-19T02:58:39;12.05;;;9.48;;
4430;SDS011;2228;48.140;11.488;2022-08-19T03:01:06;11.75;;;9.75;;
4430;SDS011;2228;48.140;11.488;2022-08-19T03:03:33;13.18;;;8.55;;
4430;SDS011;2228;48.140;11.488;2022-08-19T03:06:07;12.65;;;9.40;;
4430;SDS011;2228;48.140;11.488;2022-08-19T03:08:39;9.60;;;8.32;;
4430;SDS011;2228;48.140;11.488;2022-08-19T03:11:11;9.35;;;8.35;;
4430;SDS011;2228;48.140;11.488;2022-08-19T03:13:39;10.77;;;9.60;;
4430;SDS011;2228;48.140;11.488;2022-08-19T03:16:08;10.95;;;8.60;;
4430;SDS011;2228;48.140;11.488;2022-08-19T03:18:36;9.40;;;8.10;;
4430;SDS011;2228;48.140;11.488;2022-08-19T03:21:02;9.60;;;7.60;;
4430;SDS011;2228;48.140;11.488;2022-08-19T03:23:29;8.70;;;7.50;;
4430;SDS011;2228;48.140;11.488;2022-08-19T03:25:58;10.45;;;8.25;;
4430;SDS011;2228;48.140;11.488;2022-08-19T03:28:26;10.00;;;8.00;;
4430;SDS011;2228;48.140;11.488;2022-08-19T03:30:56;8.80;;;7.47;;
4430;SDS011;2228;48.140;11.488;2022-08-19T03:33:25;9.48;;;8.00;;
4430;SDS011;2228;48.140;11.488;2022-08-19T03:35:59;9.57;;;7.88;;
4430;SDS011;2228;48.140;11.488;2022-08-19T03:38:27;9.38;;;7.25;;
4430;SDS011;2228;48.140;11.488;2022-08-19T03:40:54;9.00;;;7.40;;
4430;SDS011;2228;48.140;11.488;2022-08-19T03:43:22;8.75;;;7.55;;
4430;SDS011;2228;48.140;11.488;2022-08-19T03:45:58;10.00;;;7.80;;
4430;SDS011;2228;48.140;11.488;2022-08-19T03:48:28;7.90;;;7.10;;
4430;SDS011;2228;48.140;11.488;2022-08-19T03:50:55;8.95;;;7.40;;
4430;SDS011;2228;48.140;11.488;2022-08-19T03:53:24;11.40;;;8.00;;
4430;SDS011;2228;48.140;11.488;2022-08-19T03:55:52;8.65;;;7.60;;
4430;SDS011;2228;48.140;11.488;2022-08-19T03:58:19;9.80;;;7.85;;
4430;SDS011;2228;48.140;11.488;2022-08-19T04:00:47;10.00;;;8.00;;
4430;SDS011;2228;48.140;11.488;2022-08-19T04:03:14;9.52;;;8.32;;
4430;SDS011;2228;48.140;11.488;2022-08-19T04:05:41;10.35;;;8.70;;
4430;SDS011;2228;48.140;11.488;2022-08-19T04:08:08;11.27;;;8.98;;
4430;SDS011;2228;48.140;11.488;2022-08-19T04:10:35;12.23;;;8.90;;
4430;SDS011;2228;48.140;11.488;2022-08-19T04:13:02;11.63;;;8.70;;
4430;SDS011;2228;48.140;11.488;2022-08-19T04:15:30;12.00;;;8.95;;
4430;SDS011;2228;48.140;11.488;2022-08-19T04:18:05;11.35;;;8.50;;
4430;SDS011;2228;48.140;11.488;2022-08-19T04:20:32;12.77;;;9.70;;
4430;SDS011;2228;48.140;11.488;2022-08-19T04:23:04;13.00;;;10.40;;
4430;SDS011;2228;48.140;11.488;2022-08-19T04:25:34;13.40;;;9.93;;
4430;SDS011;2228;48.140;11.488;2022-08-19T04:28:02;14.82;;;10.30;;
4430;SDS011;2228;48.140;11.488;2022-08-19T04:30:29;12.88;;;10.00;;
4430;SDS011;2228;48.140;11.488;2022-08-19T04:32:56;16.35;;;11.27;;
4430;SDS011;2228;48.140;11.488;2022-08-19T04:35:24;15.18;;;10.90;;
4430;SDS011;2228;48.140;11.488;2022-08-19T04:37:51;14.35;;;10.73;;
4430;SDS011;2228;48.140;11.488;2022-08-19T04:40:18;14.73;;;10.30;;
4430;SDS011;2228;48.140;11.488;2022-08-19T04:43:02;13.27;;;10.32;;
4430;SDS011;2228;48.140;11.488;2022-08-19T04:45:29;13.23;;;10.65;;
4430;SDS011;2228;48.140;11.488;2022-08-19T04:47:56;13.52;;;10.50;;
4430;SDS011;2228;48.140;11.488;2022-08-19T04:50:24;17.42;;;11.65;;
4430;SDS011;2228;48.140;11.488;2022-08-19T04:52:52;19.45;;;12.43;;
4430;SDS011;2228;48.140;11.488;2022-08-19T04:55:20;16.65;;;11.73;;
4430;SDS011;2228;48.140;11.488;2022-08-19T04:57:48;16.35;;;11.35;;
4430;SDS011;2228;48.140;11.488;2022-08-19T05:00:15;16.52;;;11.75;;
4430;SDS011;2228;48.140;11.488;2022-08-19T05:02:42;16.37;;;11.90;;
4430;SDS011;2228;48.140;11.488;2022-08-19T05:05:09;14.38;;;11.40;;
4430;SDS011;2228;48.140;11.488;2022-08-19T05:07:38;13.65;;;11.48;;
4430;SDS011;2228;48.140;11.488;2022-08-19T05:10:06;14.02;;;10.85;;
4430;SDS011;2228;48.140;11.488;2022-08-19T05:12:33;13.98;;;11.73;;
4430;SDS011;2228;48.140;11.488;2022-08-19T05:15:01;16.45;;;11.52;;
4430;SDS011;2228;48.140;11.488;2022-08-19T05:17:29;16.80;;;11.45;;
4430;SDS011;2228;48.140;11.488;2022-08-19T05:19:56;15.65;;;11.98;;
4430;SDS011;2228;48.140;11.488;2022-08-19T05:22:43;15.73;;;10.20;;
4430;SDS011;2228;48.140;11.488;2022-08-19T05:25:14;12.60;;;9.90;;
4430;SDS011;2228;48.140;11.488;2022-08-19T05:27:43;13.07;;;10.07;;
4430;SDS011;2228;48.140;11.488;2022-08-19T05:30:10;13.77;;;9.80;;
4430;SDS011;2228;48.140;11.488;2022-08-19T05:32:38;13.10;;;10.45;;
4430;SDS011;2228;48.140;11.488;2022-08-19T05:35:06;12.80;;;9.52;;
4430;SDS011;2228;48.140;11.488;2022-08-19T05:37:34;13.20;;;9.90;;
4430;SDS011;2228;48.140;11.488;2022-08-19T05:40:02;13.88;;;10.95;;
4430;SDS011;2228;48.140;11.488;2022-08-19T05:42:30;13.97;;;11.10;;
4430;SDS011;2228;48.140;11.488;2022-08-19T05:44:56;13.77;;;10.50;;
4430;SDS011;2228;48.140;11.488;2022-08-19T05:47:23;13.20;;;10.10;;
4430;SDS011;2228;48.140;11.488;2022-08-19T05:49:50;12.38;;;10.45;;
4430;SDS011;2228;48.140;11.488;2022-08-19T05:52:17;14.93;;;10.15;;
4430;SDS011;2228;48.140;11.488;2022-08-19T05:54:45;11.45;;;9.38;;
4430;SDS011;2228;48.140;11.488;2022-08-19T05:57:14;11.85;;;9.52;;
4430;SDS011;2228;48.140;11.488;2022-08-19T05:59:41;15.63;;;11.60;;
4430;SDS011;2228;48.140;11.488;2022-08-19T06:02:08;13.20;;;10.57;;
4430;SDS011;2228;48.140;11.488;2022-08-19T06:04:35;14.23;;;10.80;;
4430;SDS011;2228;48.140;11.488;2022-08-19T06:07:02;13.82;;;12.25;;
4430;SDS011;2228;48.140;11.488;2022-08-19T06:09:29;18.50;;;13.73;;
4430;SDS011;2228;48.140;11.488;2022-08-19T06:11:57;13.93;;;12.18;;
4430;SDS011;2228;48.140;11.488;2022-08-19T06:14:27;13.60;;;11.20;;
4430;SDS011;2228;48.140;11.488;2022-08-19T06:16:55;16.58;;;12.13;;
4430;SDS011;2228;48.140;11.488;2022-08-19T06:19:26;17.35;;;13.38;;
4430;SDS011;2228;48.140;11.488;2022-08-19T06:21:55;16.17;;;12.60;;
4430;SDS011;2228;48.140;11.488;2022-08-19T06:24:23;18.30;;;14.38;;
4430;SDS011;2228;48.140;11.488;2022-08-19T06:26:52;19.63;;;14.30;;
4430;SDS011;2228;48.140;11.488;2022-08-19T06:29:22;19.10;;;14.43;;
4430;SDS011;2228;48.140;11.488;2022-08-19T06:31:53;20.80;;;14.23;;
4430;SDS011;2228;48.140;11.488;2022-08-19T06:34:22;18.73;;;14.60;;
4430;SDS011;2228;48.140;11.488;2022-08-19T06:36:51;18.33;;;14.23;;
4430;SDS011;2228;48.140;11.488;2022-08-19T06:39:19;18.05;;;14.30;;
4430;SDS011;2228;48.140;11.488;2022-08-19T06:41:49;19.07;;;14.90;;
4430;SDS011;2228;48.140;11.488;2022-08-19T06:44:18;20.17;;;15.30;;
4430;SDS011;2228;48.140;11.488;2022-08-19T06:46:46;20.60;;;16.38;;
4430;SDS011;2228;48.140;11.488;2022-08-19T06:49:16;23.00;;;15.93;;
4430;SDS011;2228;48.140;11.488;2022-08-19T06:51:44;20.95;;;15.57;;
4430;SDS011;2228;48.140;11.488;2022-08-19T06:54:13;19.85;;;15.63;;
4430;SDS011;2228;48.140;11.488;2022-08-19T06:56:41;19.80;;;14.85;;
4430;SDS011;2228;48.140;11.488;2022-08-19T06:59:11;19.33;;;15.00;;
4430;SDS011;2228;48.140;11.488;2022-08-19T07:01:43;18.35;;;15.18;;
4430;SDS011;2228;48.140;11.488;2022-08-19T07:04:12;20.27;;;14.82;;
4430;SDS011;2228;48.140;11.488;2022-08-19T07:06:43;20.60;;;14.90;;
4430;SDS011;2228;48.140;11.488;2022-08-19T07:09:12;20.55;;;14.77;;
4430;SDS011;2228;48.140;11.488;2022-08-19T07:11:43;19.30;;;15.00;;
4430;SDS011;2228;48.140;11.488;2022-08-19T07:14:11;19.60;;;15.20;;
4430;SDS011;2228;48.140;11.488;2022-08-19T07:16:39;19.23;;;14.40;;
4430;SDS011;2228;48.140;11.488;2022-08-19T07:19:06;19.48;;;16.00;;
4430;SDS011;2228;48.140;11.488;2022-08-19T07:21:34;21.00;;;16.35;;
4430;SDS011;2228;48.140;11.488;2022-08-19T07:24:02;23.23;;;17.05;;
4430;SDS011;2228;48.140;11.488;2022-08-19T07:26:30;20.45;;;16.05;;
4430;SDS011;2228;48.140;11.488;2022-08-19T07:28:59;25.60;;;18.42;;
4430;SDS011;2228;48.140;11.488;2022-08-19T07:31:27;27.58;;;22.10;;
4430;SDS011;2228;48.140;11.488;2022-08-19T07:33:54;32.85;;;24.23;;
4430;SDS011;2228;48.140;11.488;2022-08-19T07:36:22;30.60;;;22.20;;
4430;SDS011;2228;48.140;11.488;2022-08-19T07:38:54;31.27;;;23.10;;
4430;SDS011;2228;48.140;11.488;2022-08-19T07:41:22;30.05;;;22.80;;
4430;SDS011;2228;48.140;11.488;2022-08-19T07:43:51;27.70;;;21.67;;
4430;SDS011;2228;48.140;11.488;2022-08-19T07:46:19;29.13;;;20.83;;
4430;SDS011;2228;48.140;11.488;2022-08-19T07:48:46;28.80;;;21.92;;
4430;SDS011;2228;48.140;11.488;2022-08-19T07:51:15;25.60;;;20.73;;
4430;SDS011;2228;48.140;11.488;2022-08-19T07:53:44;25.60;;;20.25;;
4430;SDS011;2228;48.140;11.488;2022-08-19T07:56:13;27.95;;;21.75;;
4430;SDS011;2228;48.140;11.488;2022-08-19T07:58:42;29.95;;;22.15;;
4430;SDS011;2228;48.140;11.488;2022-08-19T08:01:11;26.77;;;21.38;;
4430;SDS011;2228;48.140;11.488;2022-08-19T08:03:40;29.45;;;22.27;;
4430;SDS011;2228;48.140;11.488;2022-08-19T08:06:30;28.08;;;22.40;;
4430;SDS011;2228;48.140;11.488;2022-08-19T08:09:15;30.83;;;22.58;;
4430;SDS011;2228;48.140;11.488;2022-08-19T08:11:48;34.78;;;24.52;;
4430;SDS011;2228;48.140;11.488;2022-08-19T08:14:17;31.80;;;23.80;;
4430;SDS011;2228;48.140;11.488;2022-08-19T08:16:45;35.42;;;24.88;;
4430;SDS011;2228;48.140;11.488;2022-08-19T08:19:12;32.70;;;23.75;;
4430;SDS011;2228;48.140;11.488;2022-08-19T08:21:41;30.58;;;22.88;;
4430;SDS011;2228;48.140;11.488;2022-08-19T08:24:08;33.73;;;24.00;;
4430;SDS011;2228;48.140;11.488;2022-08-19T08:26:35;33.95;;;24.85;;
4430;SDS011;2228;48.140;11.488;2022-08-19T08:29:04;36.60;;;26.37;;
4430;SDS011;2228;48.140;11.488;2022-08-19T08:31:32;40.72;;;28.10;;
4430;SDS011;2228;48.140;11.488;2022-08-19T08:33:59;36.63;;;26.63;;
4430;SDS011;2228;48.140;11.488;2022-08-19T08:36:27;34.92;;;25.63;;
4430;SDS011;2228;48.140;11.488;2022-08-19T08:38:54;37.60;;;26.73;;
4430;SDS011;2228;48.140;11.488;2022-08-19T08:41:22;34.15;;;25.67;;
4430;SDS011;2228;48.140;11.488;2022-08-19T08:44:00;37.47;;;27.02;;
4430;SDS011;2228;48.140;11.488;2022-08-19T08:46:33;41.17;;;28.15;;
4430;SDS011;2228;48.140;11.488;2022-08-19T08:49:15;39.97;;;28.17;;
4430;SDS011;2228;48.140;11.488;2022-08-19T08:51:51;39.97;;;28.15;;
4430;SDS011;2228;48.140;11.488;2022-08-19T08:54:25;40.73;;;29.70;;
4430;SDS011;2228;48.140;11.488;2022-08-19T08:56:58;40.33;;;28.03;;
4430;SDS011;2228;48.140;11.488;2022-08-19T08:59:26;37.63;;;28.05;;
4430;SDS011;2228;48.140;11.488;2022-08-19T09:01:58;39.95;;;28.65;;
4430;SDS011;2228;48.140;11.488;2022-08-19T09:04:26;41.25;;;27.30;;
4430;SDS011;2228;48.140;11.488;2022-08-19T09:06:54;39.60;;;28.25;;
4430;SDS011;2228;48.140;11.488;2022-08-19T09:09:37;46.37;;;28.93;;
4430;SDS011;2228;48.140;11.488;2022-08-19T09:12:09;54.13;;;31.58;;
4430;SDS011;2228;48.140;11.488;2022-08-19T09:14:45;50.53;;;32.88;;
4430;SDS011;2228;48.140;11.488;2022-08-19T09:17:18;51.28;;;34.20;;
4430;SDS011;2228;48.140;11.488;2022-08-19T09:19:55;51.20;;;32.40;;
4430;SDS011;2228;48.140;11.488;2022-08-19T09:22:24;50.30;;;31.30;;
4430;SDS011;2228;48.140;11.488;2022-08-19T09:24:52;54.70;;;32.58;;
4430;SDS011;2228;48.140;11.488;2022-08-19T09:27:20;49.88;;;31.52;;
4430;SDS011;2228;48.140;11.488;2022-08-19T09:29:48;46.65;;;30.08;;
4430;SDS011;2228;48.140;11.488;2022-08-19T09:32:15;51.45;;;30.77;;
4430;SDS011;2228;48.140;11.488;2022-08-19T09:34:44;53.80;;;33.42;;
4430;SDS011;2228;48.140;11.488;2022-08-19T09:37:11;53.97;;;31.42;;
4430;SDS011;2228;48.140;11.488;2022-08-19T09:39:38;50.97;;;33.47;;
4430;SDS011;2228;48.140;11.488;2022-08-19T09:42:07;54.33;;;32.45;;
4430;SDS011;2228;48.140;11.488;2022-08-19T09:44:37;48.47;;;29.55;;
4430;SDS011;2228;48.140;11.488;2022-08-19T09:47:04;44.28;;;28.30;;
4430;SDS011;2228;48.140;11.488;2022-08-19T09:49:32;49.70;;;29.83;;
4430;SDS011;2228;48.140;11.488;2022-08-19T09:52:00;41.85;;;28.02;;
4430;SDS011;2228;48.140;11.488;2022-08-19T09:54:27;42.30;;;28.67;;
4430;SDS011;2228;48.140;11.488;2022-08-19T09:56:54;41.67;;;27.67;;
4430;SDS011;2228;48.140;11.488;2022-08-19T09:59:26;40.72;;;27.33;;
4430;SDS011;2228;48.140;11.488;2022-08-19T10:01:53;37.53;;;25.00;;
4430;SDS011;2228;48.140;11.488;2022-08-19T10:04:21;40.20;;;26.85;;
4430;SDS011;2228;48.140;11.488;2022-08-19T10:07:10;43.00;;;27.40;;
4430;SDS011;2228;48.140;11.488;2022-08-19T10:09:37;40.90;;;26.53;;
4430;SDS011;2228;48.140;11.488;2022-08-19T10:12:06;40.05;;;26.52;;
4430;SDS011;2228;48.140;11.488;2022-08-19T10:14:34;42.33;;;29.52;;
4430;SDS011;2228;48.140;11.488;2022-08-19T10:17:01;45.93;;;29.13;;
4430;SDS011;2228;48.140;11.488;2022-08-19T10:19:28;43.22;;;27.08;;
4430;SDS011;2228;48.140;11.488;2022-08-19T10:22:02;41.30;;;25.70;;
4430;SDS011;2228;48.140;11.488;2022-08-19T10:24:31;36.75;;;25.15;;
4430;SDS011;2228;48.140;11.488;2022-08-19T10:26:59;37.95;;;25.90;;
4430;SDS011;2228;48.140;11.488;2022-08-19T10:29:28;37.53;;;24.45;;
4430;SDS011;2228;48.140;11.488;2022-08-19T10:31:56;35.35;;;25.55;;
4430;SDS011;2228;48.140;11.488;2022-08-19T10:34:23;40.90;;;26.67;;
4430;SDS011;2228;48.140;11.488;2022-08-19T10:36:50;34.58;;;24.45;;
4430;SDS011;2228;48.140;11.488;2022-08-19T10:39:17;31.70;;;22.73;;
4430;SDS011;2228;48.140;11.488;2022-08-19T10:41:45;26.83;;;19.15;;
4430;SDS011;2228;48.140;11.488;2022-08-19T10:44:12;26.33;;;19.77;;
4430;SDS011;2228;48.140;11.488;2022-08-19T10:46:41;23.60;;;17.75;;
4430;SDS011;2228;48.140;11.488;2022-08-19T10:49:12;21.80;;;16.30;;
4430;SDS011;2228;48.140;11.488;2022-08-19T10:51:39;24.55;;;17.95;;
4430;SDS011;2228;48.140;11.488;2022-08-19T10:54:24;20.20;;;15.48;;
4430;SDS011;2228;48.140;11.488;2022-08-19T10:57:13;21.10;;;16.35;;
4430;SDS011;2228;48.140;11.488;2022-08-19T10:59:39;16.70;;;14.20;;
4430;SDS011;2228;48.140;11.488;2022-08-19T11:02:07;18.27;;;13.27;;
4430;SDS011;2228;48.140;11.488;2022-08-19T11:04:35;17.40;;;14.18;;
4430;SDS011;2228;48.140;11.488;2022-08-19T11:07:03;21.87;;;16.60;;
4430;SDS011;2228;48.140;11.488;2022-08-19T11:09:31;20.27;;;16.20;;
4430;SDS011;2228;48.140;11.488;2022-08-19T11:12:04;17.73;;;13.90;;
4430;SDS011;2228;48.140;11.488;2022-08-19T11:14:33;16.85;;;13.10;;
4430;SDS011;2228;48.140;11.488;2022-08-19T11:17:01;13.50;;;10.68;;
4430;SDS011;2228;48.140;11.488;2022-08-19T11:19:28;12.00;;;8.88;;
4430;SDS011;2228;48.140;11.488;2022-08-19T11:21:55;8.02;;;7.22;;
4430;SDS011;2228;48.140;11.488;2022-08-19T11:24:23;7.30;;;6.20;;
4430;SDS011;2228;48.140;11.488;2022-08-19T11:26:54;7.60;;;6.80;;
4430;SDS011;2228;48.140;11.488;2022-08-19T11:29:27;6.72;;;5.82;;
4430;SDS011;2228;48.140;11.488;2022-08-19T11:31:55;6.07;;;5.47;;
4430;SDS011;2228;48.140;11.488;2022-08-19T11:34:23;5.10;;;4.60;;
4430;SDS011;2228;48.140;11.488;2022-08-19T11:36:52;4.50;;;4.10;;
4430;SDS011;2228;48.140;11.488;2022-08-19T11:39:23;4.20;;;3.80;;
4430;SDS011;2228;48.140;11.488;2022-08-19T11:41:51;4.10;;;3.40;;
4430;SDS011;2228;48.140;11.488;2022-08-19T11:44:18;3.70;;;3.30;;
4430;SDS011;2228;48.140;11.488;2022-08-19T11:46:45;4.10;;;3.70;;
4430;SDS011;2228;48.140;11.488;2022-08-19T11:49:14;4.35;;;3.75;;
4430;SDS011;2228;48.140;11.488;2022-08-19T11:51:43;4.20;;;3.80;;
4430;SDS011;2228;48.140;11.488;2022-08-19T11:54:11;3.25;;;2.95;;
4430;SDS011;2228;48.140;11.488;2022-08-19T11:56:39;2.20;;;2.00;;
4430;SDS011;2228;48.140;11.488;2022-08-19T11:59:07;1.73;;;1.63;;
4430;SDS011;2228;48.140;11.488;2022-08-19T12:01:35;1.88;;;1.73;;
4430;SDS011;2228;48.140;11.488;2022-08-19T12:04:02;1.80;;;1.60;;
4430;SDS011;2228;48.140;11.488;2022-08-19T12:06:32;1.50;;;1.40;;
4430;SDS011;2228;48.140;11.488;2022-08-19T12:09:00;1.60;;;1.50;;
4430;SDS011;2228;48.140;11.488;2022-08-19T12:11:29;1.95;;;1.75;;
4430;SDS011;2228;48.140;11.488;2022-08-19T12:13:55;2.28;;;1.65;;
4430;SDS011;2228;48.140;11.488;2022-08-19T12:16:23;1.95;;;1.80;;
4430;SDS011;2228;48.140;11.488;2022-08-19T12:18:51;2.33;;;1.58;;
4430;SDS011;2228;48.140;11.488;2022-08-19T12:21:20;1.80;;;1.55;;
4430;SDS011;2228;48.140;11.488;2022-08-19T12:23:51;1.60;;;1.40;;
4430;SDS011;2228;48.140;11.488;2022-08-19T12:26:18;1.40;;;1.30;;
4430;SDS011;2228;48.140;11.488;2022-08-19T12:28:45;2.30;;;1.35;;
4430;SDS011;2228;48.140;11.488;2022-08-19T12:31:13;1.40;;;1.27;;
4430;SDS011;2228;48.140;11.488;2022-08-19T12:33:41;1.70;;;1.38;;
4430;SDS011;2228;48.140;11.488;2022-08-19T12:36:10;1.43;;;1.33;;
4430;SDS011;2228;48.140;11.488;2022-08-19T12:38:38;1.30;;;1.20;;
4430;SDS011;2228;48.140;11.488;2022-08-19T12:41:09;1.50;;;1.30;;
4430;SDS011;2228;48.140;11.488;2022-08-19T12:43:38;1.40;;;1.15;;
4430;SDS011;2228;48.140;11.488;2022-08-19T12:46:06;2.13;;;1.30;;
4430;SDS011;2228;48.140;11.488;2022-08-19T12:48:33;2.15;;;1.48;;
4430;SDS011;2228;48.140;11.488;2022-08-19T12:51:00;1.63;;;1.30;;
4430;SDS011;2228;48.140;11.488;2022-08-19T12:53:31;1.70;;;1.60;;
4430;SDS011;2228;48.140;11.488;2022-08-19T12:55:58;1.50;;;1.40;;
4430;SDS011;2228;48.140;11.488;2022-08-19T12:58:28;2.75;;;1.73;;
4430;SDS011;2228;48.140;11.488;2022-08-19T13:00:55;1.73;;;1.63;;
4430;SDS011;2228;48.140;11.488;2022-08-19T13:03:22;1.30;;;1.20;;
4430;SDS011;2228;48.140;11.488;2022-08-19T13:05:54;1.70;;;1.60;;
4430;SDS011;2228;48.140;11.488;2022-08-19T13:08:21;2.03;;;1.50;;
4430;SDS011;2228;48.140;11.488;2022-08-19T13:10:48;1.40;;;1.30;;
4430;SDS011;2228;48.140;11.488;2022-08-19T13:13:16;1.40;;;1.30;;
4430;SDS011;2228;48.140;11.488;2022-08-19T13:15:44;1.30;;;1.20;;
4430;SDS011;2228;48.140;11.488;2022-08-19T13:18:17;1.38;;;1.27;;
4430;SDS011;2228;48.140;11.488;2022-08-19T13:20:44;1.77;;;1.67;;
4430;SDS011;2228;48.140;11.488;2022-08-19T13:23:11;1.80;;;1.60;;
4430;SDS011;2228;48.140;11.488;2022-08-19T13:25:38;1.70;;;1.60;;
4430;SDS011;2228;48.140;11.488;2022-08-19T13:28:04;2.60;;;1.40;;
4430;SDS011;2228;48.140;11.488;2022-08-19T13:30:32;1.52;;;1.42;;
4430;SDS011;2228;48.140;11.488;2022-08-19T13:33:17;2.30;;;1.70;;
4430;SDS011;2228;48.140;11.488;2022-08-19T13:35:45;1.90;;;1.80;;
4430;SDS011;2228;48.140;11.488;2022-08-19T13:38:14;2.40;;;2.20;;
4430;SDS011;2228;48.140;11.488;2022-08-19T13:40:42;2.53;;;2.33;;
4430;SDS011;2228;48.140;11.488;2022-08-19T13:43:09;2.50;;;2.30;;
4430;SDS011;2228;48.140;11.488;2022-08-19T13:45:36;2.40;;;2.20;;
4430;SDS011;2228;48.140;11.488;2022-08-19T13:48:04;4.00;;;2.50;;
4430;SDS011;2228;48.140;11.488;2022-08-19T13:50:35;3.38;;;2.35;;
4430;SDS011;2228;48.140;11.488;2022-08-19T13:53:06;2.97;;;2.67;;
4430;SDS011;2228;48.140;11.488;2022-08-19T13:55:34;2.72;;;2.53;;
4430;SDS011;2228;48.140;11.488;2022-08-19T13:58:02;3.20;;;2.90;;
4430;SDS011;2228;48.140;11.488;2022-08-19T14:00:30;4.47;;;3.40;;
4430;SDS011;2228;48.140;11.488;2022-08-19T14:02:59;3.90;;;3.50;;
4430;SDS011;2228;48.140;11.488;2022-08-19T14:05:26;3.67;;;3.37;;
4430;SDS011;2228;48.140;11.488;2022-08-19T14:07:56;3.97;;;2.90;;
4430;SDS011;2228;48.140;11.488;2022-08-19T14:10:23;3.53;;;3.22;;
4430;SDS011;2228;48.140;11.488;2022-08-19T14:12:53;3.97;;;2.92;;
4430;SDS011;2228;48.140;11.488;2022-08-19T14:15:23;3.20;;;2.90;;
4430;SDS011;2228;48.140;11.488;2022-08-19T14:17:50;3.40;;;2.53;;
4430;SDS011;2228;48.140;11.488;2022-08-19T14:20:17;2.60;;;2.40;;
4430;SDS011;2228;48.140;11.488;2022-08-19T14:22:45;3.00;;;2.53;;
4430;SDS011;2228;48.140;11.488;2022-08-19T14:25:15;2.80;;;2.50;;
4430;SDS011;2228;48.140;11.488;2022-08-19T14:27:43;2.47;;;2.28;;
4430;SDS011;2228;48.140;11.488;2022-08-19T14:30:12;2.70;;;2.38;;
4430;SDS011;2228;48.140;11.488;2022-08-19T14:32:40;2.10;;;2.00;;
4430;SDS011;2228;48.140;11.488;2022-08-19T14:35:09;2.40;;;2.20;;
4430;SDS011;2228;48.140;11.488;2022-08-19T14:37:39;2.10;;;1.90;;
4430;SDS011;2228;48.140;11.488;2022-08-19T14:40:08;2.10;;;1.80;;
4430;SDS011;2228;48.140;11.488;2022-08-19T14:42:36;2.35;;;2.15;;
4430;SDS011;2228;48.140;11.488;2022-08-19T14:45:04;2.70;;;2.50;;
4430;SDS011;2228;48.140;11.488;2022-08-19T14:47:32;2.70;;;2.50;;
4430;SDS011;2228;48.140;11.488;2022-08-19T14:49:58;3.20;;;2.40;;
4430;SDS011;2228;48.140;11.488;2022-08-19T14:52:26;3.42;;;2.50;;